Time;durP1;ratioP1;P1;durP2;ratioP2;P2;SDS_P1;SDS_P2;PMS_P1;PMS_P2;Temp;Humidity;BMP_temperature;BMP_pressure;BME280_temperature;BME280_humidity;BME280_pressure;Samples;Min_cycle;Max_cycle;Signal;HPM_P1;HPM_P2
2021/08/03 00:01:34;;;;;;;;;;;;;;;16.22;75.78;99242.59;1709085;83;21364;-63
2021/08/03 00:04:08;;;;;;;5.10;1.50;;;;;;;16.17;75.86;99244.10;1713771;83;20123;-63
2021/08/03 00:06:35;;;;;;;3.12;1.00;;;;;;;16.17;75.86;99244.10;1641872;87;21082;-63
2021/08/03 00:09:03;;;;;;;1.90;1.20;;;;;;;16.16;75.89;99243.28;1721453;83;21040;-63
2021/08/03 00:11:29;;;;;;;2.75;1.22;;;;;;;16.19;75.96;99240.48;1720122;82;21042;-63
2021/08/03 00:13:59;;;;;;;3.85;1.60;;;;;;;16.19;76.07;99248.73;1699116;83;21027;-64
2021/08/03 00:16:25;;;;;;;3.15;1.50;;;;;;;16.15;76.09;99246.37;1703734;83;21566;-63
2021/08/03 00:18:53;;;;;;;3.02;1.60;;;;;;;16.13;76.12;99252.17;1700061;83;21542;-64
2021/08/03 00:21:19;;;;;;;2.10;1.27;;;;;;;16.13;76.00;99243.93;1719249;82;21073;-63
2021/08/03 00:23:46;;;;;;;3.35;1.20;;;;;;;16.13;75.98;99242.56;1720461;83;21462;-64
2021/08/03 00:26:16;;;;;;;2.92;1.17;;;;;;;16.12;75.95;99243.67;1709171;82;21021;-63
2021/08/03 00:28:46;;;;;;;2.98;1.57;;;;;;;16.08;76.06;99237.23;1722230;83;20978;-63
2021/08/03 00:31:12;;;;;;;3.20;1.60;;;;;;;16.02;76.29;99234.38;1702044;82;21137;-63
2021/08/03 00:33:39;;;;;;;4.22;1.70;;;;;;;15.99;76.38;99230.91;1688970;83;21481;-63
2021/08/03 00:36:05;;;;;;;3.52;1.57;;;;;;;15.99;76.48;99237.77;1707670;82;21051;-63
2021/08/03 00:38:32;;;;;;;3.55;2.15;;;;;;;16.01;76.58;99238.27;1680604;83;21607;-63
2021/08/03 00:41:02;;;;;;;6.37;3.15;;;;;;;16.03;76.65;99240.68;1727951;81;21074;-63
2021/08/03 00:43:30;;;;;;;3.83;2.65;;;;;;;16.00;76.80;99233.90;1755862;81;20994;-63
2021/08/03 00:45:56;;;;;;;;;;;;;;;15.93;77.16;99242.61;1746774;82;21437;-63
2021/08/03 00:48:23;;;;;;;3.98;1.70;;;;;;;15.91;77.42;99244.84;1743987;82;20109;-64
2021/08/03 00:50:50;;;;;;;3.10;1.75;;;;;;;15.89;77.54;99243.55;1732223;82;21402;-63
2021/08/03 00:53:18;;;;;;;3.30;1.80;;;;;;;15.92;77.56;99244.28;1755196;82;21147;-63
2021/08/03 00:55:44;;;;;;;;;;;;;;;15.94;77.50;99242.83;1722927;80;21621;-63
2021/08/03 00:58:11;;;;;;;4.65;1.87;;;;;;;15.95;77.48;99249.13;1738800;81;20145;-63
2021/08/03 01:00:38;;;;;;;3.95;2.05;;;;;;;15.87;77.72;99248.56;1758730;81;21481;-63
2021/08/03 01:03:05;;;;;;;3.30;1.75;;;;;;;15.81;77.77;99249.25;1755766;81;21477;-63
2021/08/03 01:06:09;;;;;;;5.45;2.42;;;;;;;15.83;77.66;99255.81;1754612;81;21037;-63
2021/08/03 01:09:04;;;;;;;4.05;2.62;;;;;;;15.87;77.53;99259.55;1748650;82;20955;-63
2021/08/03 01:11:59;;;;;;;4.83;2.17;;;;;;;15.86;77.51;99256.55;1755722;81;21667;-62
2021/08/03 01:14:33;;;;;;;4.50;2.45;;;;;;;15.82;77.59;99260.48;1751286;82;21647;-62
2021/08/03 01:17:26;;;;;;;3.40;2.20;;;;;;;15.80;77.71;99257.23;1740424;82;21093;-62
2021/08/03 01:20:13;;;;;;;3.35;2.40;;;;;;;15.77;77.81;99266.11;1686611;84;21621;-62
2021/08/03 01:23:02;;;;;;;;;;;;;;;15.79;77.68;99266.61;1755898;80;21028;-63
2021/08/03 01:26:00;;;;;;;3.42;1.50;;;;;;;15.82;77.47;99272.84;1752800;81;20134;-63
2021/08/03 01:28:31;;;;;;;4.30;1.52;;;;;;;15.79;77.42;99276.22;1733306;82;21556;-63
2021/08/03 01:31:19;;;;;;;2.27;1.42;;;;;;;15.78;77.39;99276.52;1733441;82;21157;-64
2021/08/03 01:33:49;;;;;;;4.22;1.77;;;;;;;15.73;77.44;99278.84;1746082;82;21018;-63
2021/08/03 01:36:17;;;;;;;4.35;2.10;;;;;;;15.70;77.40;99282.22;1751135;81;21145;-63
2021/08/03 01:38:46;;;;;;;2.60;1.90;;;;;;;15.72;77.29;99285.47;1755363;82;21038;-63
2021/08/03 01:41:15;;;;;;;3.35;1.60;;;;;;;15.71;77.16;99283.84;1758489;80;21066;-63
2021/08/03 01:43:42;;;;;;;3.20;1.90;;;;;;;15.70;77.13;99289.63;1760602;81;21545;-63
2021/08/03 01:46:09;;;;;;;2.70;1.87;;;;;;;15.64;77.23;99296.39;1760189;80;21125;-63
2021/08/03 01:48:37;;;;;;;3.50;2.00;;;;;;;15.55;77.35;99307.34;1759722;81;21080;-63
2021/08/03 01:51:05;;;;;;;4.05;1.62;;;;;;;15.54;77.32;99307.64;1760322;80;21093;-63
2021/08/03 01:53:34;;;;;;;3.30;2.00;;;;;;;15.54;77.22;99303.53;1760833;81;21002;-63
2021/08/03 01:56:01;;;;;;;4.10;2.17;;;;;;;15.52;77.18;99298.93;1732069;80;21053;-63
2021/08/03 01:58:29;;;;;;;4.20;1.82;;;;;;;15.53;77.18;99304.64;1760988;81;21546;-63
2021/08/03 02:00:57;;;;;;;2.60;1.75;;;;;;;15.50;77.24;99312.95;1759754;80;21049;-63
2021/08/03 02:03:25;;;;;;;3.92;2.15;;;;;;;15.44;77.35;99319.08;1760170;81;20965;-63
2021/08/03 02:05:53;;;;;;;4.83;2.00;;;;;;;15.42;77.43;99313.11;1729721;81;21573;-62
2021/08/03 02:08:23;;;;;;;3.05;1.80;;;;;;;15.46;77.31;99317.41;1735561;81;21392;-63
2021/08/03 02:10:52;;;;;;;4.05;1.90;;;;;;;15.46;77.19;99324.27;1737976;80;20974;-62
2021/08/03 02:13:18;;;;;;;4.25;2.10;;;;;;;15.44;77.21;99325.16;1753244;81;20998;-63
2021/08/03 02:15:46;;;;;;;3.20;1.98;;;;;;;15.41;77.24;99332.61;1756326;80;21450;-62
2021/08/03 02:18:15;;;;;;;2.75;1.98;;;;;;;15.36;77.42;99332.75;1753090;81;21057;-62
2021/08/03 02:20:45;;;;;;;3.83;2.10;;;;;;;15.31;77.55;99332.31;1756105;80;21030;-63
2021/08/03 02:23:13;;;;;;;2.60;1.82;;;;;;;15.36;77.47;99338.24;1759082;81;21050;-63
2021/08/03 02:25:42;;;;;;;6.60;2.10;;;;;;;15.37;77.43;99346.14;1748553;80;21031;-63
2021/08/03 02:28:09;;;;;;;4.45;2.33;;;;;;;15.38;77.41;99350.52;1746646;81;21521;-62
2021/08/03 02:30:36;;;;;;;3.60;2.20;;;;;;;15.35;77.44;99341.54;1728719;81;21065;-63
2021/08/03 02:33:23;;;;;;;3.55;2.40;;;;;;;15.30;77.57;99351.25;1759818;81;21073;-63
2021/08/03 02:36:00;;;;;;;2.75;2.00;;;;;;;15.25;77.53;99355.51;1758848;80;21527;-63
2021/08/03 02:38:27;;;;;;;4.10;2.10;;;;;;;15.23;77.51;99356.36;1742674;81;21580;-63
2021/08/03 02:40:54;;;;;;;2.77;1.82;;;;;;;15.20;77.61;99351.51;1750826;81;21043;-63
2021/08/03 02:43:25;;;;;;;4.55;2.45;;;;;;;15.21;77.74;99357.25;1747905;81;21014;-63
2021/08/03 02:45:57;;;;;;;4.15;2.55;;;;;;;15.20;77.97;99354.80;1728321;81;21030;-63
2021/08/03 02:48:25;;;;;;;4.65;2.20;;;;;;;15.18;78.21;99355.69;1760780;81;20947;-63
2021/08/03 02:50:52;;;;;;;3.52;2.08;;;;;;;15.21;78.15;99359.98;1743796;80;21077;-62
2021/08/03 02:53:27;;;;;;;3.50;2.40;;;;;;;15.22;78.06;99358.88;1753778;81;21030;-63
2021/08/03 02:56:03;;;;;;;4.60;2.47;;;;;;;15.20;78.19;99356.17;1760280;80;21034;-62
2021/08/03 02:58:42;;;;;;;5.00;2.45;;;;;;;15.14;78.54;99363.72;1730555;81;20974;-63
2021/08/03 03:01:11;;;;;;;3.02;2.40;;;;;;;15.08;78.83;99360.86;1740039;80;21049;-63
2021/08/03 03:03:41;;;;;;;6.22;2.50;;;;;;;15.06;79.09;99363.64;1758724;81;21588;-63
2021/08/03 03:06:08;;;;;;;4.47;2.10;;;;;;;15.10;79.28;99364.64;1751021;81;21019;-63
2021/08/03 03:08:37;;;;;;;3.47;2.30;;;;;;;15.11;79.40;99373.12;1749933;81;21036;-63
2021/08/03 03:11:04;;;;;;;;;;;;;;;15.09;79.63;99369.31;1763592;80;21041;-62
2021/08/03 03:13:46;;;;;;;3.98;2.27;;;;;;;15.10;79.73;99365.46;1675797;84;20500;-63
2021/08/03 03:16:14;;;;;;;3.20;2.15;;;;;;;15.11;79.85;99367.09;1666424;84;21042;-63
2021/08/03 03:18:42;;;;;;;4.70;2.75;;;;;;;15.21;79.92;99370.14;1704543;84;21462;-63
2021/08/03 03:21:10;;;;;;;3.22;2.20;;;;;;;15.29;79.87;99377.08;1705220;83;21074;-62
2021/08/03 03:23:36;;;;;;;6.25;2.40;;;;;;;15.33;79.76;99370.41;1719167;82;21015;-63
2021/08/03 03:26:04;;;;;;;5.65;2.17;;;;;;;15.34;79.89;99376.94;1712246;83;21678;-63
2021/08/03 03:28:33;;;;;;;4.15;2.17;;;;;;;15.40;79.78;99381.20;1665769;85;21044;-63
2021/08/03 03:31:01;;;;;;;3.08;2.12;;;;;;;15.42;79.65;99385.80;1693908;83;21625;-62
2021/08/03 03:33:29;;;;;;;3.08;2.00;;;;;;;15.43;79.60;99388.80;1661816;85;21043;-63
2021/08/03 03:35:59;;;;;;;6.03;2.00;;;;;;;15.48;79.60;99391.95;1724164;82;21023;-62
2021/08/03 03:38:30;;;;;;;4.33;2.35;;;;;;;15.55;79.60;99392.94;1724960;83;20995;-62
2021/08/03 03:40:57;;;;;;;4.78;2.50;;;;;;;15.66;79.49;99396.47;1720260;82;21396;-62
2021/08/03 03:43:28;;;;;;;3.12;2.15;;;;;;;15.75;79.34;99400.66;1743614;82;20959;-62
2021/08/03 03:46:08;;;;;;;6.75;2.22;;;;;;;15.83;79.18;99401.27;1722740;81;21075;-62
2021/08/03 03:48:40;;;;;;;4.67;2.02;;;;;;;16.02;79.27;99403.22;1741009;82;21439;-63
2021/08/03 03:51:07;;;;;;;4.92;2.02;;;;;;;16.27;79.29;99411.33;1733948;82;21051;-62
2021/08/03 03:53:40;;;;;;;4.62;2.10;;;;;;;16.48;79.04;99395.89;1742991;82;21050;-62
2021/08/03 03:56:06;;;;;;;4.12;1.90;;;;;;;16.74;78.41;99402.31;1745868;81;21584;-62
2021/08/03 03:58:40;;;;;;;4.60;2.40;;;;;;;16.97;77.36;99393.35;1743178;82;21286;-62
2021/08/03 04:01:07;;;;;;;4.12;2.50;;;;;;;17.16;76.71;99402.11;1743857;81;21030;-61
2021/08/03 04:03:36;;;;;;;4.70;2.60;;;;;;;17.29;76.18;99404.45;1724628;82;21541;-62
2021/08/03 04:06:05;;;;;;;3.70;2.27;;;;;;;17.51;75.92;99407.03;1742722;81;21057;-63
2021/08/03 04:08:32;;;;;;;6.47;2.60;;;;;;;17.79;74.78;99411.64;1726898;82;21069;-62
2021/08/03 04:11:02;;;;;;;5.45;2.87;;;;;;;18.02;74.23;99407.55;1745815;81;21085;-63
2021/08/03 04:13:29;;;;;;;4.08;2.67;;;;;;;18.28;73.22;99403.33;1747909;82;21132;-62
2021/08/03 04:15:56;;;;;;;7.20;2.45;;;;;;;18.48;72.70;99404.53;1747073;81;21506;-60
2021/08/03 04:18:23;;;;;;;3.70;1.85;;;;;;;18.71;71.55;99401.18;1748012;82;20971;-63
2021/08/03 04:20:50;;;;;;;4.67;2.77;;;;;;;18.85;70.98;99405.06;1736975;82;21537;-63
2021/08/03 04:23:16;;;;;;;3.70;2.20;;;;;;;18.92;70.15;99399.83;1741126;82;20965;-63
2021/08/03 04:25:43;;;;;;;;;;;;;;;19.02;69.71;99399.45;1741820;81;21564;-62
2021/08/03 04:28:10;;;;;;;7.03;2.10;;;;;;;19.13;69.43;99404.78;1747534;82;20489;-63
2021/08/03 04:30:36;;;;;;;3.95;2.15;;;;;;;19.12;68.43;99403.76;1729723;82;21589;-63
2021/08/03 04:33:03;;;;;;;4.62;2.33;;;;;;;19.10;68.40;99406.84;1742390;81;21117;-63
2021/08/03 04:35:29;;;;;;;4.33;2.22;;;;;;;19.23;68.90;99404.98;1726316;82;21513;-63
2021/08/03 04:37:55;;;;;;;4.05;2.67;;;;;;;19.47;68.00;99410.64;1747416;81;21105;-62
2021/08/03 04:40:22;;;;;;;6.83;2.45;;;;;;;19.65;68.00;99414.87;1722261;82;21524;-62
2021/08/03 04:42:49;;;;;;;4.00;2.35;;;;;;;19.78;66.79;99413.75;1722903;83;21155;-62
2021/08/03 04:45:15;;;;;;;3.75;2.60;;;;;;;19.84;66.73;99415.72;1721259;83;21515;-63
2021/08/03 04:47:45;;;;;;;3.70;2.47;;;;;;;20.01;66.52;99414.17;1725613;82;21075;-62
2021/08/03 04:50:19;;;;;;;4.83;2.75;;;;;;;20.32;65.46;99424.73;1719042;82;21511;-63
2021/08/03 04:52:45;;;;;;;4.17;2.70;;;;;;;20.38;64.38;99417.02;1732467;82;21109;-63
2021/08/03 04:55:13;;;;;;;6.47;2.60;;;;;;;20.47;64.99;99416.34;1735978;82;21044;-63
2021/08/03 04:57:39;;;;;;;4.15;2.70;;;;;;;20.89;65.41;99421.87;1739708;82;21100;-62
2021/08/03 05:00:09;;;;;;;3.62;2.55;;;;;;;21.33;63.04;99421.45;1729941;82;21571;-62
2021/08/03 05:02:36;;;;;;;4.50;2.70;;;;;;;21.20;61.08;99419.88;1749031;80;21030;-61
2021/08/03 05:05:05;;;;;;;4.90;2.90;;;;;;;20.97;61.42;99414.60;1724916;82;21042;-62
2021/08/03 05:07:31;;;;;;;5.42;2.65;;;;;;;20.84;61.86;99420.14;1737524;80;21099;-62
2021/08/03 05:10:10;;;;;;;4.47;2.83;;;;;;;21.04;62.95;99421.16;1727813;82;21766;-62
2021/08/03 05:12:37;;;;;;;4.42;2.75;;;;;;;21.20;61.28;99423.45;1725030;82;21059;-61
2021/08/03 05:15:06;;;;;;;4.08;3.00;;;;;;;21.26;62.04;99410.98;1718739;82;21052;-64
2021/08/03 05:17:34;;;;;;;6.10;3.17;;;;;;;21.72;61.64;99415.66;1719006;82;21028;-61
2021/08/03 05:20:01;;;;;;;6.50;3.00;;;;;;;22.08;60.83;99423.01;1723413;82;20988;-62
2021/08/03 05:22:27;;;;;;;3.98;2.72;;;;;;;22.47;60.18;99422.05;1726528;82;21614;-62
2021/08/03 05:24:55;;;;;;;4.20;2.58;;;;;;;22.83;58.78;99423.76;1733339;82;20967;-62
2021/08/03 05:27:21;;;;;;;4.30;2.70;;;;;;;23.04;57.79;99417.31;1731455;82;21040;-61
2021/08/03 05:29:48;;;;;;;4.00;2.62;;;;;;;23.05;57.40;99418.93;1734529;82;21031;-62
2021/08/03 05:32:14;;;;;;;3.75;2.50;;;;;;;23.03;56.41;99419.05;1740813;80;21029;-62
2021/08/03 05:34:40;;;;;;;5.30;2.90;;;;;;;23.12;56.20;99426.03;1753073;82;21484;-63
2021/08/03 05:37:07;;;;;;;3.70;2.65;;;;;;;23.06;55.89;99420.52;1731054;80;21072;-63
2021/08/03 05:39:33;;;;;;;4.10;2.85;;;;;;;23.03;56.42;99422.64;1635675;85;21060;-64
2021/08/03 05:42:00;;;;;;;4.03;2.95;;;;;;;23.20;56.27;99425.00;1708604;82;21135;-64
2021/08/03 05:44:26;;;;;;;3.85;2.70;;;;;;;23.36;55.82;99425.55;1716647;83;21063;-63
2021/08/03 05:46:53;;;;;;;3.62;2.60;;;;;;;23.55;56.49;99433.93;1717703;82;21756;-63
2021/08/03 05:49:20;;;;;;;3.60;2.70;;;;;;;23.56;55.00;99431.38;1747475;82;21071;-64
2021/08/03 05:51:47;;;;;;;4.50;2.70;;;;;;;23.39;54.83;99434.53;1715837;82;21090;-64
2021/08/03 05:54:13;;;;;;;4.53;2.85;;;;;;;23.24;55.20;99432.02;1711783;84;21076;-63
2021/08/03 05:56:41;;;;;;;5.10;2.60;;;;;;;23.36;54.50;99436.07;1731412;81;21094;-64
2021/08/03 05:59:08;;;;;;;3.95;2.67;;;;;;;23.43;54.94;99437.64;1747740;82;21054;-63
2021/08/03 06:01:34;;;;;;;3.08;2.17;;;;;;;23.49;55.22;99438.95;1747749;81;21094;-64
2021/08/03 06:04:01;;;;;;;4.28;3.00;;;;;;;23.43;54.92;99439.61;1747523;82;20999;-64
2021/08/03 06:06:28;;;;;;;3.45;2.58;;;;;;;23.40;54.70;99435.56;1747317;81;21551;-63
2021/08/03 06:08:55;;;;;;;3.35;2.60;;;;;;;23.59;55.25;99446.73;1747661;82;21092;-64
2021/08/03 06:11:24;;;;;;;3.45;2.12;;;;;;;23.91;54.16;99448.78;1747694;81;21078;-62
2021/08/03 06:13:56;;;;;;;5.67;2.83;;;;;;;24.10;53.33;99458.47;1747465;82;21042;-62
2021/08/03 06:16:24;;;;;;;3.83;2.62;;;;;;;24.34;53.31;99449.61;1740248;81;21113;-62
2021/08/03 06:18:51;;;;;;;2.92;2.50;;;;;;;24.60;52.59;99455.22;1734551;82;20994;-63
2021/08/03 06:21:19;;;;;;;4.78;2.65;;;;;;;24.74;51.63;99454.88;1747015;81;21069;-64
2021/08/03 06:23:47;;;;;;;4.17;2.47;;;;;;;24.95;51.31;99460.00;1747697;82;20966;-64
2021/08/03 06:26:17;;;;;;;4.35;2.10;;;;;;;25.26;50.75;99453.30;1746684;81;21098;-63
2021/08/03 06:28:45;;;;;;;4.25;2.10;;;;;;;25.52;49.51;99457.48;1747460;82;21473;-63
2021/08/03 06:31:11;;;;;;;5.55;2.17;;;;;;;25.56;48.17;99462.52;1739348;81;21031;-63
2021/08/03 06:33:38;;;;;;;2.72;2.27;;;;;;;25.39;49.25;99470.61;1739822;82;21054;-66
2021/08/03 06:36:04;;;;;;;3.33;2.00;;;;;;;25.39;48.41;99474.20;1747735;81;21533;-63
2021/08/03 06:38:31;;;;;;;2.83;1.70;;;;;;;25.47;48.41;99475.88;1747746;82;20990;-62
2021/08/03 06:41:17;;;;;;;2.50;1.80;;;;;;;25.30;48.32;99478.41;1744361;81;21466;-62
2021/08/03 06:43:54;;;;;;;3.22;2.17;;;;;;;25.16;48.43;99484.59;1718846;83;20960;-62
2021/08/03 06:46:23;;;;;;;3.72;2.40;;;;;;;24.96;49.22;99488.07;1695818;83;21078;-63
2021/08/03 06:49:02;;;;;;;2.27;2.00;;;;;;;24.87;48.38;99487.51;1721077;83;21003;-63
2021/08/03 06:51:38;;;;;;;2.50;1.90;;;;;;;24.93;48.16;99483.25;1724812;83;21128;-63
2021/08/03 06:54:07;;;;;;;2.58;2.05;;;;;;;25.13;48.41;99493.11;1705811;83;21024;-63
2021/08/03 06:56:36;;;;;;;3.25;2.17;;;;;;;24.94;47.76;99494.58;1695825;84;21583;-62
2021/08/03 06:59:14;;;;;;;3.22;2.05;;;;;;;24.91;47.96;99491.73;1662729;85;21067;-63
2021/08/03 07:01:53;;;;;;;3.80;2.02;;;;;;;24.85;47.26;99501.01;1666784;85;21237;-62
2021/08/03 07:04:24;;;;;;;2.33;1.87;;;;;;;24.59;47.95;99493.95;1723713;83;21062;-63
2021/08/03 07:06:56;;;;;;;4.53;2.10;;;;;;;24.72;48.51;99496.79;1719498;83;21093;-63
2021/08/03 07:09:25;;;;;;;3.75;1.90;;;;;;;24.86;48.53;99494.86;1724387;83;21498;-62
2021/08/03 07:11:56;;;;;;;4.97;1.82;;;;;;;25.35;46.94;99487.86;1717638;83;21094;-63
2021/08/03 07:14:26;;;;;;;3.98;2.10;;;;;;;25.35;46.94;99487.86;1709020;83;21009;-62
2021/08/03 07:16:53;;;;;;;3.85;1.80;;;;;;;25.41;46.76;99492.72;1690661;84;21084;-62
2021/08/03 07:19:21;;;;;;;2.83;1.60;;;;;;;25.50;45.60;99491.06;1690959;85;21520;-63
2021/08/03 07:21:52;;;;;;;3.45;2.02;;;;;;;25.40;45.51;99491.11;1709625;82;21096;-63
2021/08/03 07:24:19;;;;;;;3.55;2.00;;;;;;;25.26;45.82;99496.47;1722191;83;21358;-63
2021/08/03 07:26:46;;;;;;;2.42;2.00;;;;;;;24.97;45.55;99486.91;1704559;83;21076;-62
2021/08/03 07:29:12;;;;;;;3.83;2.15;;;;;;;25.02;45.70;99487.16;1724601;83;21030;-60
2021/08/03 07:31:42;;;;;;;2.20;1.67;;;;;;;24.96;46.44;99488.66;1723006;83;21178;-61
2021/08/03 07:34:10;;;;;;;2.37;1.75;;;;;;;24.94;47.24;99486.23;1719208;83;21058;-61
2021/08/03 07:36:37;;;;;;;3.40;2.00;;;;;;;25.20;47.42;99489.63;1723402;82;21137;-61
2021/08/03 07:39:07;;;;;;;4.42;1.92;;;;;;;25.39;46.25;99488.13;1724415;83;21621;-63
2021/08/03 07:41:34;;;;;;;3.30;1.60;;;;;;;25.48;47.03;99496.20;1721106;83;21046;-63
2021/08/03 07:44:03;;;;;;;3.80;1.52;;;;;;;25.45;44.56;99492.77;1737665;82;21019;-63
2021/08/03 07:46:33;;;;;;;3.50;1.98;;;;;;;25.06;44.59;99488.02;1719657;82;21100;-61
2021/08/03 07:49:01;;;;;;;5.05;2.00;;;;;;;24.74;46.03;99495.23;1724182;82;20970;-61
2021/08/03 07:51:27;;;;;;;2.37;1.90;;;;;;;24.63;45.99;99485.89;1716908;82;21678;-61
2021/08/03 07:56:35;;;;;;;3.62;1.90;;;;;;;25.07;47.01;99482.67;1785052;79;23299;-59
2021/08/03 07:59:01;;;;;;;2.35;1.70;;;;;;;25.25;47.56;99489.31;1723122;83;21107;-60
2021/08/03 08:01:28;;;;;;;3.55;2.12;;;;;;;25.50;46.76;99492.46;1722837;83;21563;-61
2021/08/03 08:03:55;;;;;;;3.95;1.70;;;;;;;25.55;44.81;99490.75;1723587;82;21398;-61
2021/08/03 08:06:21;;;;;;;3.70;1.60;;;;;;;25.43;44.41;99491.78;1740421;82;21473;-62
2021/08/03 08:08:48;;;;;;;4.20;1.80;;;;;;;25.27;45.13;99491.13;1745914;82;21007;-62
2021/08/03 08:11:15;;;;;;;3.77;1.98;;;;;;;25.25;44.95;99490.13;1736699;82;21079;-60
2021/08/03 08:13:41;;;;;;;5.80;2.27;;;;;;;25.24;44.99;99477.37;1723156;83;21061;-61
2021/08/03 08:16:08;;;;;;;4.42;2.00;;;;;;;25.55;45.70;99489.36;1746827;82;21055;-61
2021/08/03 08:18:36;;;;;;;7.55;3.22;;;;;;;25.71;44.79;99482.44;1752996;82;21526;-62
2021/08/03 08:21:03;;;;;;;2.70;1.77;;;;;;;25.69;44.91;99485.37;1732340;82;21130;-62
2021/08/03 08:23:29;;;;;;;3.45;2.50;;;;;;;25.65;44.86;99487.30;1723414;82;20960;-61
2021/08/03 08:25:58;;;;;;;2.70;1.60;;;;;;;25.54;44.56;99483.59;1723201;83;21039;-60
2021/08/03 08:28:25;;;;;;;3.10;2.10;;;;;;;25.30;46.10;99483.41;1705833;82;21035;-63
2021/08/03 08:30:52;;;;;;;3.77;2.02;;;;;;;25.32;45.31;99480.25;1739245;82;21035;-63
2021/08/03 08:33:18;;;;;;;3.52;2.02;;;;;;;25.40;45.50;99480.58;1732688;82;21039;-62
2021/08/03 08:35:44;;;;;;;2.47;1.98;;;;;;;25.31;46.08;99479.45;1735355;82;21035;-64
2021/08/03 08:38:11;;;;;;;2.55;1.85;;;;;;;25.21;45.65;99476.73;1753132;82;21455;-64
2021/08/03 08:40:40;;;;;;;2.72;1.75;;;;;;;25.22;45.96;99481.09;1751971;82;20991;-64
2021/08/03 08:43:06;;;;;;;3.00;1.70;;;;;;;25.29;45.04;99474.05;1735403;82;20967;-63
2021/08/03 08:45:33;;;;;;;2.05;1.70;;;;;;;25.28;46.11;99474.63;1746398;82;21007;-64
2021/08/03 08:48:00;;;;;;;2.20;1.60;;;;;;;25.53;45.83;99477.80;1744482;80;21036;-64
2021/08/03 08:50:29;;;;;;;2.55;1.62;;;;;;;25.58;44.73;99477.45;1749474;82;20968;-64
2021/08/03 08:52:56;;;;;;;2.40;1.60;;;;;;;25.35;44.35;99477.52;1737872;80;21577;-64
2021/08/03 08:55:23;;;;;;;2.33;1.62;;;;;;;25.23;45.92;99477.14;1685448;82;20980;-64
2021/08/03 08:57:51;;;;;;;3.55;1.70;;;;;;;25.42;44.98;99474.84;1748811;82;21106;-64
2021/08/03 09:00:22;;;;;;;4.30;1.60;;;;;;;25.29;44.74;99471.27;1749836;82;21482;-63
2021/08/03 09:02:52;;;;;;;2.92;1.70;;;;;;;25.28;44.97;99469.06;1735930;82;21425;-63
2021/08/03 09:05:32;;;;;;;1.67;1.52;;;;;;;25.46;44.71;99460.95;1720108;83;21056;-65
2021/08/03 09:08:01;;;;;;;5.15;1.60;;;;;;;25.77;45.10;99455.02;1718635;83;21091;-62
2021/08/03 09:10:35;;;;;;;3.22;1.65;;;;;;;26.12;45.00;99453.22;1745693;82;21003;-62
2021/08/03 09:13:14;;;;;;;1.72;1.12;;;;;;;26.41;43.04;99455.74;1748311;81;21692;-63
2021/08/03 09:15:48;;;;;;;2.72;1.32;;;;;;;26.49;42.83;99452.64;1745390;82;21019;-65
2021/08/03 09:18:37;;;;;;;2.10;1.37;;;;;;;26.34;41.72;99450.09;1737973;82;21070;-65
2021/08/03 09:21:04;;;;;;;2.98;1.65;;;;;;;26.26;41.68;99437.25;1745597;82;21060;-65
2021/08/03 09:23:59;;;;;;;5.62;1.90;;;;;;;26.37;41.97;99438.97;1757301;80;21003;-65
2021/08/03 09:26:47;;;;;;;2.40;1.35;;;;;;;26.47;41.80;99431.28;1697825;84;21056;-66
2021/08/03 09:29:17;;;;;;;2.20;1.25;;;;;;;26.18;41.74;99434.38;1724419;82;21019;-65
2021/08/03 09:31:57;;;;;;;2.85;1.72;;;;;;;25.94;43.83;99434.89;1711917;82;21523;-64
2021/08/03 09:34:23;;;;;;;2.17;1.40;;;;;;;26.13;43.98;99430.53;1714669;83;21062;-66
2021/08/03 09:37:00;;;;;;;3.95;1.50;;;;;;;26.43;44.60;99433.23;1735803;82;21054;-66
2021/08/03 09:39:45;;;;;;;2.02;1.45;;;;;;;26.60;43.41;99424.83;1740953;82;21035;-65
2021/08/03 09:42:17;;;;;;;2.65;1.62;;;;;;;26.77;42.31;99427.55;1729124;82;21031;-63
2021/08/03 09:44:53;;;;;;;3.40;1.60;;;;;;;26.71;40.73;99421.53;1719550;83;21052;-64
2021/08/03 09:47:21;;;;;;;2.02;1.50;;;;;;;26.62;42.21;99422.44;1730236;82;21039;-65
2021/08/03 09:49:51;;;;;;;2.75;1.40;;;;;;;26.79;43.17;99418.98;1749326;82;21023;-65
2021/08/03 09:52:23;;;;;;;1.92;1.60;;;;;;;27.04;42.14;99421.39;1737713;82;21106;-62
2021/08/03 09:54:49;;;;;;;2.15;1.50;;;;;;;27.29;40.39;99421.53;1719925;83;21015;-63
2021/08/03 09:57:24;;;;;;;2.37;1.50;;;;;;;27.35;40.92;99421.36;1723824;82;21047;-62
2021/08/03 09:59:54;;;;;;;3.20;1.55;;;;;;;27.46;40.52;99409.67;1686186;85;21071;-62
2021/08/03 10:02:28;;;;;;;2.83;2.15;;;;;;;27.46;42.07;99414.45;1723376;83;21532;-63
2021/08/03 10:04:55;;;;;;;1.52;1.35;;;;;;;27.63;41.42;99410.34;1723625;83;21541;-63
2021/08/03 10:07:22;;;;;;;4.47;1.60;;;;;;;27.77;41.02;99404.02;1723520;82;21018;-62
2021/08/03 10:09:50;;;;;;;2.33;1.55;;;;;;;27.99;40.01;99410.45;1723047;83;21541;-62
2021/08/03 10:12:17;;;;;;;2.35;1.50;;;;;;;28.06;40.08;99417.46;1723418;83;21046;-62
2021/08/03 10:14:44;;;;;;;3.65;1.60;;;;;;;28.05;40.01;99402.70;1723821;82;21030;-62
2021/08/03 10:17:12;;;;;;;1.90;1.70;;;;;;;27.95;39.68;99404.08;1723188;82;21058;-62
2021/08/03 10:19:39;;;;;;;1.75;1.40;;;;;;;27.92;38.95;99409.03;1723819;82;21039;-62
2021/08/03 10:22:23;;;;;;;3.83;1.70;;;;;;;27.80;40.10;99408.83;1697227;82;21035;-62
2021/08/03 10:25:00;;;;;;;3.95;1.60;;;;;;;27.81;40.34;99412.42;1732483;82;21571;-65
2021/08/03 10:27:52;;;;;;;2.70;1.75;;;;;;;27.89;40.97;99407.03;1747449;82;21051;-65
2021/08/03 10:30:34;;;;;;;2.25;1.50;;;;;;;28.02;40.06;99413.88;1746284;82;21090;-64
2021/08/03 10:33:11;;;;;;;3.67;1.72;;;;;;;27.93;39.50;99406.45;1734396;82;21062;-64
2021/08/03 10:35:49;;;;;;;3.17;1.53;;;;;;;27.58;40.43;99409.34;1753325;81;21043;-65
2021/08/03 10:38:18;;;;;;;2.50;1.80;;;;;;;27.24;41.43;99411.34;1736270;82;21019;-65
2021/08/03 10:40:57;;;;;;;2.00;1.40;;;;;;;26.97;41.20;99406.56;1723016;83;21034;-65
2021/08/03 10:43:48;;;;;;;2.27;1.82;;;;;;;26.70;41.72;99401.77;1723292;83;21039;-64
2021/08/03 10:46:17;;;;;;;2.30;2.00;;;;;;;26.58;42.31;99404.85;1722169;83;21522;-65
2021/08/03 10:48:43;;;;;;;2.42;1.45;;;;;;;26.54;41.68;99402.62;1724790;82;20990;-65
2021/08/03 10:51:22;;;;;;;2.50;1.72;;;;;;;26.51;41.68;99404.80;1741880;82;21538;-64
2021/08/03 10:54:11;;;;;;;2.08;1.70;;;;;;;26.25;41.61;99402.98;1730836;81;21003;-65
2021/08/03 10:56:58;;;;;;;3.42;1.60;;;;;;;26.03;42.40;99403.34;1726101;82;21018;-65
2021/08/03 10:59:38;;;;;;;2.70;1.70;;;;;;;26.03;42.40;99403.34;1731424;81;21007;-65
2021/08/03 11:02:11;;;;;;;3.02;1.75;;;;;;;26.09;41.71;99413.55;1732049;81;21608;-65
2021/08/03 11:04:53;;;;;;;2.58;1.85;;;;;;;26.15;43.02;99409.21;1760414;81;21613;-64
2021/08/03 11:07:36;;;;;;;2.65;1.60;;;;;;;26.16;42.67;99410.23;1761101;81;21512;-66
2021/08/03 11:10:21;;;;;;;4.58;2.27;;;;;;;26.36;43.15;99408.67;1759069;81;20990;-67
2021/08/03 11:12:50;;;;;;;2.63;1.57;;;;;;;26.59;41.27;99404.48;1755959;81;21011;-65
2021/08/03 11:15:26;;;;;;;2.95;2.10;;;;;;;26.51;42.08;99407.59;1730912;83;22211;-65
2021/08/03 11:18:03;;;;;;;4.15;2.10;;;;;;;26.36;42.47;99412.86;1730832;83;21637;-65
2021/08/03 11:20:39;;;;;;;3.80;2.05;;;;;;;26.30;42.70;99406.81;1758765;81;21012;-66
2021/08/03 11:23:14;;;;;;;2.22;1.60;;;;;;;26.43;41.89;99401.75;1760975;81;20967;-64
2021/08/03 11:25:42;;;;;;;2.15;1.55;;;;;;;26.47;42.26;99398.37;1760998;81;21533;-63
2021/08/03 11:28:21;;;;;;;2.02;1.60;;;;;;;26.57;42.17;99399.86;1760945;81;21002;-63
2021/08/03 11:30:50;;;;;;;2.47;1.52;;;;;;;26.65;41.35;99402.12;1758652;81;21038;-64
2021/08/03 11:33:18;;;;;;;2.40;1.52;;;;;;;26.82;42.05;99400.67;1760753;81;20995;-63
2021/08/03 11:35:45;;;;;;;2.20;1.70;;;;;;;27.01;40.64;99402.61;1760698;81;21046;-63
2021/08/03 11:38:14;;;;;;;2.52;1.65;;;;;;;27.04;39.96;99397.64;1748873;81;21042;-64
2021/08/03 11:40:42;;;;;;;3.90;1.70;;;;;;;27.13;41.23;99392.52;1730851;83;21101;-64
2021/08/03 11:43:08;;;;;;;3.05;1.57;;;;;;;27.18;40.61;99390.73;1730658;83;21081;-63
2021/08/03 11:45:53;;;;;;;3.33;1.30;;;;;;;27.29;40.21;99381.02;1707821;83;21572;-64
2021/08/03 11:48:23;;;;;;;2.30;1.37;;;;;;;27.42;40.35;99376.67;1731382;81;21523;-64
2021/08/03 11:50:49;;;;;;;2.67;1.42;;;;;;;27.40;39.74;99380.47;1732722;81;21038;-64
2021/08/03 11:53:22;;;;;;;3.33;1.72;;;;;;;27.23;39.34;99393.77;1760934;81;21019;-63